createdAt,value
2023-03-13T00:01:24.763Z,10.50
2023-03-13T00:03:55.303Z,10.60
2023-03-13T00:06:25.089Z,10.60
2023-03-13T00:08:53.287Z,10.60
2023-03-13T00:11:21.587Z,10.60
2023-03-13T00:13:49.733Z,10.50
2023-03-13T00:16:19.325Z,10.50
2023-03-13T00:18:48.551Z,10.50
2023-03-13T00:21:18.057Z,10.50
2023-03-13T00:23:47.441Z,10.50
2023-03-13T00:26:18.102Z,10.50
2023-03-13T00:28:47.244Z,10.50
2023-03-13T00:31:19.391Z,10.40
2023-03-13T00:33:51.954Z,10.40
2023-03-13T00:36:22.976Z,10.40
2023-03-13T00:38:51.228Z,10.40
2023-03-13T00:41:21.870Z,10.30
2023-03-13T00:43:50.816Z,10.30
2023-03-13T00:46:23.683Z,10.30
2023-03-13T00:48:52.471Z,10.30
2023-03-13T00:51:23.822Z,10.30
2023-03-13T00:53:52.021Z,10.30
2023-03-13T00:56:22.138Z,10.30
2023-03-13T00:58:51.499Z,10.30
2023-03-13T01:01:23.997Z,10.40
2023-03-13T01:03:54.394Z,10.40
2023-03-13T01:06:25.148Z,10.40
2023-03-13T01:08:53.607Z,10.30
2023-03-13T01:11:24.630Z,10.30
2023-03-13T01:13:55.204Z,10.40
2023-03-13T01:16:26.211Z,10.30
2023-03-13T01:18:57.614Z,10.30
2023-03-13T01:21:26.587Z,10.20
2023-03-13T01:23:56.159Z,10.20
2023-03-13T01:26:25.663Z,10.20
2023-03-13T01:28:53.906Z,10.20
2023-03-13T01:31:25.913Z,10.20
2023-03-13T01:33:57.819Z,10.20
2023-03-13T01:36:27.092Z,10.20
2023-03-13T01:38:58.282Z,10.20
2023-03-13T01:41:27.657Z,10.20
2023-03-13T01:43:56.475Z,10.20
2023-03-13T01:46:27.935Z,10.20
2023-03-13T01:49:02.231Z,10.20
2023-03-13T01:51:34.575Z,10.20
2023-03-13T01:54:09.302Z,10.30
2023-03-13T01:56:43.901Z,10.30
2023-03-13T01:59:16.626Z,10.30
2023-03-13T02:01:48.771Z,10.30
2023-03-13T02:04:17.982Z,10.40
2023-03-13T02:06:51.212Z,10.40
2023-03-13T02:09:23.014Z,10.40
2023-03-13T02:11:58.068Z,10.40
2023-03-13T02:14:30.182Z,10.40
2023-03-13T02:16:59.856Z,10.40
2023-03-13T02:19:37.269Z,10.40
2023-03-13T02:22:13.724Z,10.40
2023-03-13T02:24:51.788Z,10.40
2023-03-13T02:27:21.372Z,10.50
2023-03-13T02:29:50.233Z,10.50
2023-03-13T02:32:18.790Z,10.50
2023-03-13T02:34:53.989Z,10.50
2023-03-13T02:37:23.253Z,10.60
2023-03-13T02:39:53.026Z,10.60
2023-03-13T02:42:24.134Z,10.60
2023-03-13T02:44:52.396Z,10.70
2023-03-13T02:47:21.423Z,10.70
2023-03-13T02:49:51.029Z,10.80
2023-03-13T02:52:24.599Z,10.80
2023-03-13T02:54:58.784Z,10.80
2023-03-13T02:57:29.274Z,10.80
2023-03-13T02:59:57.473Z,10.90
2023-03-13T03:02:25.660Z,10.90
2023-03-13T03:04:53.870Z,10.90
2023-03-13T03:07:22.016Z,10.90
2023-03-13T03:09:50.191Z,10.90
2023-03-13T03:12:18.363Z,11.00
2023-03-13T03:14:48.013Z,11.00
2023-03-13T03:17:16.216Z,11.10
2023-03-13T03:19:44.392Z,11.10
2023-03-13T03:22:12.613Z,11.10
2023-03-13T03:24:40.798Z,11.10
2023-03-13T03:27:08.992Z,11.10
2023-03-13T03:29:37.196Z,11.10
2023-03-13T03:32:07.376Z,11.10
2023-03-13T03:34:35.584Z,11.10
2023-03-13T03:37:03.885Z,11.10
2023-03-13T03:39:32.103Z,11.10
2023-03-13T03:42:00.265Z,11.20
2023-03-13T03:44:28.627Z,11.20
2023-03-13T03:46:56.838Z,11.20
2023-03-13T03:49:26.444Z,11.20
2023-03-13T03:51:54.682Z,11.20
2023-03-13T03:54:22.899Z,11.30
2023-03-13T03:56:51.044Z,11.30
2023-03-13T03:59:19.223Z,11.30
2023-03-13T04:01:47.435Z,11.40
2023-03-13T04:04:15.648Z,11.40
2023-03-13T04:06:45.209Z,11.40
2023-03-13T04:09:13.423Z,11.40
2023-03-13T04:11:41.601Z,11.40
2023-03-13T04:14:09.847Z,11.40
2023-03-13T04:16:38.204Z,11.50
2023-03-13T04:19:07.486Z,11.50
2023-03-13T04:21:35.741Z,11.50
2023-03-13T04:24:05.617Z,11.60
2023-03-13T04:26:33.839Z,11.60
2023-03-13T04:29:02.028Z,11.60
2023-03-13T04:31:30.196Z,11.60
2023-03-13T04:33:58.402Z,11.70
2023-03-13T04:36:26.604Z,11.70
2023-03-13T04:38:54.797Z,11.70
2023-03-13T04:41:24.341Z,11.70
2023-03-13T04:43:52.530Z,11.70
2023-03-13T04:46:20.679Z,11.80
2023-03-13T04:48:48.826Z,11.80
2023-03-13T04:51:17.059Z,11.80
2023-03-13T04:53:45.320Z,11.90
2023-03-13T04:56:26.830Z,11.90
2023-03-13T04:59:02.199Z,11.90
2023-03-13T05:01:30.534Z,11.90
2023-03-13T05:03:58.665Z,11.90
2023-03-13T05:06:26.839Z,11.90
2023-03-13T05:08:54.987Z,12.00
2023-03-13T05:11:23.417Z,12.00
2023-03-13T05:13:51.590Z,12.00
2023-03-13T05:16:21.250Z,12.00
2023-03-13T05:18:49.450Z,12.00
2023-03-13T05:21:17.609Z,12.00
2023-03-13T05:23:45.778Z,12.10
2023-03-13T05:26:13.992Z,12.10
2023-03-13T05:28:42.174Z,12.10
2023-03-13T05:31:10.427Z,12.10
2023-03-13T05:33:40.130Z,12.20
2023-03-13T05:36:09.574Z,12.20
2023-03-13T05:38:37.832Z,12.20
2023-03-13T05:41:06.257Z,12.20
2023-03-13T05:43:34.526Z,12.20
2023-03-13T05:46:02.755Z,12.20
2023-03-13T05:48:30.993Z,12.30
2023-03-13T05:51:00.545Z,12.30
2023-03-13T05:53:28.746Z,12.30
2023-03-13T05:55:56.924Z,12.40
2023-03-13T05:58:25.281Z,12.40
2023-03-13T06:00:53.807Z,12.40
2023-03-13T06:03:22.015Z,12.40
2023-03-13T06:05:51.695Z,12.40
2023-03-13T06:08:21.845Z,12.50
2023-03-13T06:10:50.152Z,12.50
2023-03-13T06:13:20.293Z,12.50
2023-03-13T06:15:53.297Z,12.50
2023-03-13T06:18:21.599Z,12.60
2023-03-13T06:20:50.640Z,12.60
2023-03-13T06:23:20.263Z,12.70
2023-03-13T06:25:49.386Z,12.60
2023-03-13T06:28:18.010Z,12.70
2023-03-13T06:30:46.180Z,12.70
2023-03-13T06:33:14.468Z,12.70
2023-03-13T06:35:55.582Z,12.70
2023-03-13T06:38:26.362Z,12.70
2023-03-13T06:40:54.929Z,12.70
2023-03-13T06:43:23.389Z,12.80
2023-03-13T06:45:52.168Z,12.80
2023-03-13T06:48:23.020Z,12.90
2023-03-13T06:50:51.363Z,12.90
2023-03-13T06:53:22.044Z,12.90
2023-03-13T06:55:51.971Z,12.90
2023-03-13T06:58:31.566Z,13.00
2023-03-13T07:01:00.931Z,13.00
2023-03-13T07:03:29.268Z,13.00
2023-03-13T07:05:58.053Z,13.00
2023-03-13T07:08:26.647Z,13.00
2023-03-13T07:11:01.208Z,13.00
2023-03-13T07:13:29.991Z,13.10
2023-03-13T07:16:01.028Z,13.10
2023-03-13T07:18:29.045Z,13.10
2023-03-13T07:20:59.221Z,13.20
2023-03-13T07:23:30.181Z,13.20
2023-03-13T07:26:01.092Z,13.20
2023-03-13T07:28:30.850Z,13.20
2023-03-13T07:31:06.413Z,13.20
2023-03-13T07:33:35.225Z,13.20
2023-03-13T07:36:03.760Z,13.20
2023-03-13T07:38:32.392Z,13.20
2023-03-13T07:41:02.152Z,13.20
2023-03-13T07:43:31.674Z,13.20
2023-03-13T07:46:01.893Z,13.20
2023-03-13T07:48:32.590Z,13.20
2023-03-13T07:51:01.376Z,13.20
2023-03-13T07:53:30.335Z,13.30
2023-03-13T07:56:02.132Z,13.20
2023-03-13T07:58:32.452Z,13.30
2023-03-13T08:01:00.934Z,13.40
2023-03-13T08:03:30.133Z,13.40
2023-03-13T08:06:02.836Z,13.50
2023-03-13T08:08:31.601Z,13.50
2023-03-13T08:11:06.594Z,13.50
2023-03-13T08:13:36.387Z,13.50
2023-03-13T08:16:07.857Z,13.50
2023-03-13T08:18:37.103Z,13.50
2023-03-13T08:21:08.147Z,13.60
2023-03-13T08:23:36.383Z,13.60
2023-03-13T08:26:07.941Z,13.60
2023-03-13T08:28:37.722Z,13.50
2023-03-13T08:31:11.196Z,13.50
2023-03-13T08:33:40.092Z,13.60
2023-03-13T08:36:14.820Z,13.70
2023-03-13T08:38:45.969Z,13.70
2023-03-13T08:41:18.481Z,13.80
2023-03-13T08:43:47.576Z,14.00
2023-03-13T08:46:18.512Z,14.10
2023-03-13T08:48:51.583Z,14.20
2023-03-13T08:51:21.789Z,14.20
2023-03-13T08:53:51.130Z,14.20
2023-03-13T08:56:23.307Z,14.30
2023-03-13T08:58:52.318Z,14.40
2023-03-13T09:01:22.290Z,14.60
2023-03-13T09:03:51.082Z,14.70
2023-03-13T09:06:19.855Z,14.80
2023-03-13T09:08:48.108Z,14.90
2023-03-13T09:11:21.052Z,15.00
2023-03-13T09:13:51.655Z,15.20
2023-03-13T09:16:22.610Z,15.30
2023-03-13T09:18:51.725Z,15.30
2023-03-13T09:21:22.553Z,15.20
2023-03-13T09:23:51.635Z,15.00
2023-03-13T09:26:23.430Z,14.90
2023-03-13T09:28:52.342Z,15.00
2023-03-13T09:31:22.818Z,15.30
2023-03-13T09:33:52.126Z,15.50
2023-03-13T09:36:22.902Z,15.60
2023-03-13T09:38:51.419Z,15.60
2023-03-13T09:41:29.611Z,15.60
2023-03-13T09:44:06.495Z,15.60
2023-03-13T09:46:41.667Z,15.60
2023-03-13T09:49:22.013Z,15.40
2023-03-13T09:51:59.596Z,15.30
2023-03-13T09:54:35.719Z,15.30
2023-03-13T09:57:14.898Z,15.50
2023-03-13T09:59:51.271Z,15.80
2023-03-13T10:02:28.790Z,16.00
2023-03-13T10:05:14.600Z,15.90
2023-03-13T10:07:42.938Z,16.00
2023-03-13T10:10:19.177Z,16.20
2023-03-13T10:12:52.454Z,16.20
2023-03-13T10:15:37.050Z,16.30
2023-03-13T10:18:17.407Z,16.40
2023-03-13T10:20:50.074Z,16.80
2023-03-13T10:23:28.540Z,16.70
2023-03-13T10:25:56.737Z,16.60
2023-03-13T10:28:27.130Z,16.50
2023-03-13T10:31:04.219Z,16.30
2023-03-13T10:33:36.038Z,16.20
2023-03-13T10:36:10.272Z,16.20
2023-03-13T10:38:50.667Z,16.20
2023-03-13T10:41:30.401Z,16.10
2023-03-13T10:44:06.091Z,16.20
2023-03-13T10:46:37.205Z,16.20
2023-03-13T10:49:16.706Z,16.10
2023-03-13T10:51:50.131Z,16.20
2023-03-13T10:54:25.958Z,16.40
2023-03-13T10:57:10.707Z,16.40
2023-03-13T10:59:45.976Z,16.40
2023-03-13T11:02:28.788Z,16.50
2023-03-13T11:04:59.385Z,16.50
2023-03-13T11:07:31.729Z,16.40
2023-03-13T11:10:03.028Z,16.30
2023-03-13T11:12:35.997Z,16.30
2023-03-13T11:15:14.873Z,16.30
2023-03-13T11:17:43.492Z,16.30
2023-03-13T11:20:24.579Z,16.30
2023-03-13T11:22:57.639Z,16.50
2023-03-13T11:25:35.517Z,16.60
2023-03-13T11:28:27.265Z,16.60
2023-03-13T11:31:10.411Z,16.70
2023-03-13T11:33:53.133Z,16.70
2023-03-13T11:36:28.800Z,16.60
2023-03-13T11:39:07.554Z,16.60
2023-03-13T11:42:00.595Z,16.60
2023-03-13T11:44:43.328Z,16.80
2023-03-13T11:47:44.896Z,17.10
2023-03-13T11:50:38.741Z,17.30
2023-03-13T11:53:26.635Z,17.20
2023-03-13T11:56:04.982Z,17.00
2023-03-13T11:58:44.170Z,17.10
2023-03-13T12:01:17.362Z,17.00
2023-03-13T12:03:58.640Z,16.90
2023-03-13T12:06:32.402Z,17.00
2023-03-13T12:09:08.107Z,17.10
2023-03-13T12:11:43.815Z,17.10
2023-03-13T12:14:19.603Z,17.00
2023-03-13T12:16:53.611Z,17.20
2023-03-13T12:19:30.894Z,17.30
2023-03-13T12:22:08.499Z,17.20
2023-03-13T12:24:41.478Z,17.20
2023-03-13T12:27:17.768Z,17.10
2023-03-13T12:29:55.438Z,17.00
2023-03-13T12:32:30.938Z,17.00
2023-03-13T12:35:09.206Z,16.90
2023-03-13T12:37:46.815Z,16.80
2023-03-13T12:40:25.262Z,16.90
2023-03-13T12:42:59.603Z,17.20
2023-03-13T12:45:29.816Z,17.30
2023-03-13T12:48:23.369Z,17.10
2023-03-13T12:51:25.137Z,17.00
2023-03-13T12:54:26.228Z,17.00
2023-03-13T12:57:15.868Z,17.20
2023-03-13T12:59:47.775Z,17.20
2023-03-13T13:02:20.127Z,17.10
2023-03-13T13:04:50.880Z,17.10
2023-03-13T13:07:26.782Z,17.10
2023-03-13T13:10:16.902Z,17.00
2023-03-13T13:12:46.998Z,17.00
2023-03-13T13:15:22.803Z,16.90
2023-03-13T13:18:06.857Z,17.00
2023-03-13T13:20:40.140Z,17.00
2023-03-13T13:23:33.689Z,17.00
2023-03-13T13:26:50.806Z,17.10
2023-03-13T13:29:58.988Z,17.30
2023-03-13T13:32:40.938Z,17.30
2023-03-13T13:35:34.019Z,17.20
2023-03-13T13:38:40.214Z,17.10
2023-03-13T13:41:41.467Z,17.00
2023-03-13T13:44:29.063Z,16.90
2023-03-13T13:47:01.899Z,16.80
2023-03-13T13:49:55.525Z,16.80
2023-03-13T13:52:42.195Z,16.80
2023-03-13T13:55:51.873Z,16.90
2023-03-13T13:58:23.792Z,17.00
2023-03-13T14:00:57.257Z,17.00
2023-03-13T14:03:28.269Z,16.90
2023-03-13T14:06:00.599Z,16.70
2023-03-13T14:08:32.052Z,16.70
2023-03-13T14:11:23.976Z,16.60
2023-03-13T14:14:14.564Z,16.50
2023-03-13T14:16:47.408Z,16.50
2023-03-13T14:19:28.302Z,16.60
2023-03-13T14:22:02.795Z,16.60
2023-03-13T14:24:31.341Z,16.60
2023-03-13T14:27:01.559Z,16.60
2023-03-13T14:29:30.034Z,16.70
2023-03-13T14:32:00.785Z,16.80
2023-03-13T14:34:32.282Z,16.80
2023-03-13T14:37:17.637Z,16.70
2023-03-13T14:39:48.773Z,16.70
2023-03-13T14:42:19.792Z,16.80
2023-03-13T14:44:50.215Z,16.90
2023-03-13T14:47:25.397Z,17.00
2023-03-13T14:49:58.826Z,16.90
2023-03-13T14:52:29.327Z,16.80
2023-03-13T14:55:02.153Z,16.70
2023-03-13T14:57:33.258Z,16.70
2023-03-13T15:00:37.470Z,16.60
2023-03-13T15:03:31.669Z,16.50
2023-03-13T15:06:16.016Z,16.60
2023-03-13T15:08:46.676Z,16.70
2023-03-13T15:11:28.352Z,16.80
2023-03-13T15:13:58.848Z,16.70
2023-03-13T15:16:28.607Z,16.60
2023-03-13T15:18:57.795Z,16.70
2023-03-13T15:21:30.044Z,16.70
2023-03-13T15:24:02.035Z,16.80
2023-03-13T15:26:31.036Z,16.90
2023-03-13T15:29:00.650Z,16.90
2023-03-13T15:31:30.490Z,16.80
2023-03-13T15:34:00.831Z,16.70
2023-03-13T15:36:30.773Z,16.70
2023-03-13T15:38:59.195Z,16.70
2023-03-13T15:41:27.504Z,16.70
2023-03-13T15:43:56.959Z,16.70
2023-03-13T15:46:27.628Z,16.60
2023-03-13T15:48:55.980Z,16.60
2023-03-13T15:51:24.192Z,16.60
2023-03-13T15:53:53.551Z,16.60
2023-03-13T15:56:23.860Z,16.60
2023-03-13T15:58:52.571Z,16.60
2023-03-13T16:01:23.078Z,16.50
2023-03-13T16:03:52.785Z,16.40
2023-03-13T16:06:30.702Z,16.40
2023-03-13T16:09:00.153Z,16.30
2023-03-13T16:11:29.588Z,16.30
2023-03-13T16:13:58.460Z,16.20
2023-03-13T16:16:29.620Z,16.20
2023-03-13T16:19:04.201Z,16.10
2023-03-13T16:21:35.088Z,16.00
2023-03-13T16:24:03.553Z,16.00
2023-03-13T16:26:33.106Z,16.00
2023-03-13T16:29:01.380Z,15.90
2023-03-13T16:31:31.991Z,15.80
2023-03-13T16:34:02.313Z,15.80
2023-03-13T16:36:33.655Z,15.70
2023-03-13T16:39:05.465Z,15.60
2023-03-13T16:41:33.947Z,15.60
2023-03-13T16:44:03.655Z,15.50
2023-03-13T16:46:36.929Z,15.40
2023-03-13T16:49:08.480Z,15.40
2023-03-13T16:51:36.884Z,15.30
2023-03-13T16:54:06.538Z,15.30
2023-03-13T16:56:36.865Z,15.20
2023-03-13T16:59:08.988Z,15.20
2023-03-13T17:01:37.862Z,15.10
2023-03-13T17:04:08.033Z,15.10
2023-03-13T17:06:38.938Z,15.00
2023-03-13T17:09:13.814Z,15.00
2023-03-13T17:11:42.854Z,15.00
2023-03-13T17:14:13.251Z,14.90
2023-03-13T17:16:44.186Z,14.90
2023-03-13T17:19:20.574Z,14.80
2023-03-13T17:21:49.230Z,14.80
2023-03-13T17:24:17.445Z,14.70
2023-03-13T17:26:45.960Z,14.70
2023-03-13T17:29:18.790Z,14.70
2023-03-13T17:31:47.266Z,14.70
2023-03-13T17:34:17.206Z,14.70
2023-03-13T17:36:45.641Z,14.70
2023-03-13T17:39:15.853Z,14.60
2023-03-13T17:41:44.112Z,14.60
2023-03-13T17:44:12.327Z,14.60
2023-03-13T17:46:43.879Z,14.50
2023-03-13T17:49:13.375Z,14.50
2023-03-13T17:51:44.503Z,14.50
2023-03-13T17:54:15.243Z,14.50
2023-03-13T17:56:45.439Z,14.40
2023-03-13T17:59:15.937Z,14.40
2023-03-13T18:01:46.893Z,14.40
2023-03-13T18:04:15.133Z,14.30
2023-03-13T18:06:47.530Z,14.30
2023-03-13T18:09:18.446Z,14.30
2023-03-13T18:11:47.396Z,14.20
2023-03-13T18:14:15.827Z,14.20
2023-03-13T18:16:47.928Z,14.10
2023-03-13T18:19:22.053Z,14.10
2023-03-13T18:21:57.114Z,14.00
2023-03-13T18:24:25.569Z,13.90
2023-03-13T18:26:55.923Z,13.90
2023-03-13T18:29:27.235Z,13.90
2023-03-13T18:31:58.580Z,13.80
2023-03-13T18:34:27.466Z,13.80
2023-03-13T18:37:03.442Z,13.70
2023-03-13T18:39:32.195Z,13.70
2023-03-13T18:42:02.004Z,13.70
2023-03-13T18:44:30.234Z,13.70
2023-03-13T18:46:58.699Z,13.70
2023-03-13T18:49:26.899Z,13.70
2023-03-13T18:51:56.523Z,13.70
2023-03-13T18:54:24.740Z,13.70
2023-03-13T18:56:52.970Z,13.70
2023-03-13T18:59:22.995Z,13.60
2023-03-13T19:01:51.934Z,13.60
2023-03-13T19:04:21.051Z,13.50
2023-03-13T19:06:49.384Z,13.50
2023-03-13T19:09:42.328Z,13.50
2023-03-13T19:12:11.573Z,13.50
2023-03-13T19:14:39.772Z,13.50
2023-03-13T19:17:18.669Z,13.40
2023-03-13T19:19:46.882Z,13.40
2023-03-13T19:22:15.521Z,13.30
2023-03-13T19:24:45.118Z,13.30
2023-03-13T19:27:17.121Z,13.30
2023-03-13T19:29:46.404Z,13.30
2023-03-13T19:32:16.025Z,13.30
2023-03-13T19:34:44.598Z,13.30
2023-03-13T19:37:14.744Z,13.30
2023-03-13T19:39:44.527Z,13.30
2023-03-13T19:42:13.032Z,13.30
2023-03-13T19:44:41.469Z,13.30
2023-03-13T19:47:14.719Z,13.30
2023-03-13T19:49:43.128Z,13.30
2023-03-13T19:52:11.324Z,13.30
2023-03-13T19:54:39.566Z,13.20
2023-03-13T19:57:12.084Z,13.20
2023-03-13T19:59:40.315Z,13.20
2023-03-13T20:02:10.212Z,13.20
2023-03-13T20:04:39.536Z,13.20
2023-03-13T20:07:08.242Z,13.20
2023-03-13T20:09:36.854Z,13.20
2023-03-13T20:12:05.917Z,13.10
2023-03-13T20:14:35.934Z,13.10
2023-03-13T20:17:04.418Z,13.00
2023-03-13T20:19:33.097Z,13.00
2023-03-13T20:22:03.735Z,12.90
2023-03-13T20:24:33.554Z,12.90
2023-03-13T20:27:02.398Z,12.90
2023-03-13T20:29:30.774Z,12.90
2023-03-13T20:32:01.623Z,12.90
2023-03-13T20:34:30.204Z,12.80
2023-03-13T20:37:00.027Z,12.80
2023-03-13T20:39:29.061Z,12.80
2023-03-13T20:41:57.502Z,12.80
2023-03-13T20:44:25.827Z,12.70
2023-03-13T20:46:54.188Z,12.70
2023-03-13T20:49:23.729Z,12.70
2023-03-13T20:51:52.069Z,12.70
2023-03-13T20:54:20.280Z,12.70
2023-03-13T20:56:48.566Z,12.60
2023-03-13T20:59:16.817Z,12.60
2023-03-13T21:01:45.336Z,12.60
2023-03-13T21:04:13.682Z,12.50
2023-03-13T21:06:43.374Z,12.50
2023-03-13T21:09:11.546Z,12.50
2023-03-13T21:11:39.786Z,12.50
2023-03-13T21:14:08.052Z,12.50
2023-03-13T21:16:36.460Z,12.40
2023-03-13T21:19:04.849Z,12.50
2023-03-13T21:21:33.128Z,12.40
2023-03-13T21:24:02.855Z,12.40
2023-03-13T21:26:31.295Z,12.40
2023-03-13T21:28:59.563Z,12.40
2023-03-13T21:31:27.829Z,12.40
2023-03-13T21:33:56.384Z,12.30
2023-03-13T21:36:24.863Z,12.30
2023-03-13T21:38:53.214Z,12.30
2023-03-13T21:41:23.796Z,12.20
2023-03-13T21:43:51.988Z,12.30
2023-03-13T21:46:22.169Z,12.20
2023-03-13T21:48:50.571Z,12.20
2023-03-13T21:51:18.865Z,12.20
2023-03-13T21:53:47.135Z,12.20
2023-03-13T21:56:17.316Z,12.20
2023-03-13T21:58:47.135Z,12.10
2023-03-13T22:01:16.173Z,12.10
2023-03-13T22:03:44.786Z,12.10
2023-03-13T22:06:14.785Z,12.00
2023-03-13T22:08:43.122Z,12.00
2023-03-13T22:11:11.375Z,12.00
2023-03-13T22:13:39.680Z,12.00
2023-03-13T22:16:11.511Z,12.00
2023-03-13T22:18:41.841Z,12.00
2023-03-13T22:21:10.061Z,11.90
2023-03-13T22:23:38.331Z,11.90
2023-03-13T22:26:07.336Z,11.90
2023-03-13T22:28:35.551Z,11.90
2023-03-13T22:31:04.804Z,11.80
2023-03-13T22:33:34.908Z,11.80
2023-03-13T22:36:03.685Z,11.80
2023-03-13T22:38:36.175Z,11.70
2023-03-13T22:41:08.139Z,11.70
2023-03-13T22:43:36.637Z,11.70
2023-03-13T22:46:05.307Z,11.70
2023-03-13T22:48:35.345Z,11.70
2023-03-13T22:51:08.551Z,11.70
2023-03-13T22:53:38.770Z,11.70
2023-03-13T22:56:09.868Z,11.70
2023-03-13T22:58:38.109Z,11.60
2023-03-13T23:01:08.824Z,11.60
2023-03-13T23:03:38.446Z,11.60
2023-03-13T23:06:08.373Z,11.50
2023-03-13T23:08:36.974Z,11.50
2023-03-13T23:11:06.122Z,11.50
2023-03-13T23:13:34.507Z,11.50
2023-03-13T23:16:06.738Z,11.60
2023-03-13T23:18:37.180Z,11.60
2023-03-13T23:21:07.690Z,11.60
2023-03-13T23:23:36.043Z,11.60
2023-03-13T23:26:07.134Z,11.60
2023-03-13T23:28:35.480Z,11.70
2023-03-13T23:31:11.382Z,11.60
2023-03-13T23:33:41.141Z,11.60
2023-03-13T23:36:12.115Z,11.70
2023-03-13T23:38:40.438Z,11.60
2023-03-13T23:41:09.709Z,11.70
2023-03-13T23:43:37.953Z,11.70
2023-03-13T23:46:08.543Z,11.70
2023-03-13T23:48:36.743Z,11.70
2023-03-13T23:51:08.858Z,11.70
2023-03-13T23:53:38.049Z,11.70
2023-03-13T23:56:07.248Z,11.80
2023-03-13T23:58:35.954Z,11.80
